Time;durP1;ratioP1;P1;durP2;ratioP2;P2;SDS_P1;SDS_P2;PMS_P1;PMS_P2;Temp;Humidity;BMP_temperature;BMP_pressure;BME280_temperature;BME280_humidity;BME280_pressure;Samples;Min_cycle;Max_cycle;Signal;HPM_P1;HPM_P2
2023/10/07 00:00:47;;;;;;;11.70;4.70;;;;;;;14.33;77.81;98959.48;136658;1278;22150;-83
2023/10/07 00:04:10;;;;;;;11.10;5.30;;;;;;;14.28;77.65;98956.86;136809;1278;22679;-81
2023/10/07 00:07:13;;;;;;;12.00;5.20;;;;;;;14.23;77.53;98953.89;136968;1278;22220;-81
2023/10/07 00:10:24;;;;;;;9.70;5.10;;;;;;;14.19;77.59;98952.32;136812;1278;22347;-81
2023/10/07 00:13:31;;;;;;;13.40;4.60;;;;;;;14.14;77.44;98941.48;136770;1278;22681;-81
2023/10/07 00:16:36;;;;;;;11.40;4.20;;;;;;;14.13;77.26;98934.13;136901;1278;22040;-82
2023/10/07 00:19:41;;;;;;;10.80;4.90;;;;;;;14.12;77.19;98937.11;136623;1278;24305;-82
2023/10/07 00:22:49;;;;;;;10.90;4.70;;;;;;;14.12;77.07;98929.05;136703;1278;22297;-82
2023/10/07 00:25:51;;;;;;;7.30;4.50;;;;;;;14.12;77.03;98922.93;136728;1278;24282;-81
2023/10/07 00:29:00;;;;;;;11.60;4.80;;;;;;;14.11;76.85;98916.11;136928;1278;22785;-82
2023/10/07 00:32:05;;;;;;;8.40;4.20;;;;;;;14.08;76.57;98909.11;136647;1278;22274;-81
2023/10/07 00:35:07;;;;;;;8.50;4.40;;;;;;;14.05;76.48;98905.95;136715;1275;22218;-82
2023/10/07 00:38:14;;;;;;;7.90;4.60;;;;;;;14.03;76.36;98906.31;136789;1278;22549;-81
2023/10/07 00:41:18;;;;;;;11.30;4.60;;;;;;;14.02;76.33;98903.88;136669;1278;22196;-81
2023/10/07 00:44:23;;;;;;;8.70;4.80;;;;;;;14.01;76.15;98898.27;136568;1278;22214;-81
2023/10/07 00:47:26;;;;;;;7.20;4.40;;;;;;;14.01;76.27;98894.08;136920;1271;22636;-82
2023/10/07 00:50:29;;;;;;;8.80;4.50;;;;;;;13.99;76.34;98897.92;136726;1278;22150;-82
2023/10/07 00:53:44;;;;;;;7.10;4.20;;;;;;;13.98;76.14;98898.98;136562;1278;22523;-81
2023/10/07 00:56:54;;;;;;;39.30;5.90;;;;;;;13.96;76.23;98895.48;136323;1278;22579;-81
2023/10/07 01:00:04;;;;;;;10.10;4.50;;;;;;;13.94;76.19;98894.77;135852;1278;25522;-82
2023/10/07 01:03:17;;;;;;;10.30;4.70;;;;;;;13.92;76.01;98891.80;136315;1278;22567;-81
2023/10/07 01:06:26;;;;;;;7.90;4.70;;;;;;;13.90;75.95;98888.83;136502;1278;22070;-81
2023/10/07 01:09:29;;;;;;;13.00;4.90;;;;;;;13.90;75.65;98883.23;137152;1278;22094;-82
2023/10/07 01:12:36;;;;;;;11.30;4.40;;;;;;;13.89;75.59;98883.41;136663;1278;22063;-82
2023/10/07 01:15:39;;;;;;;7.50;4.30;;;;;;;13.89;75.42;98886.39;136902;1278;22586;-81
2023/10/07 01:18:42;;;;;;;6.30;4.10;;;;;;;13.88;75.47;98881.66;136873;1278;22173;-82
2023/10/07 01:21:51;;;;;;;11.50;4.60;;;;;;;13.87;75.22;98872.02;136303;1275;22534;-81
2023/10/07 02:06:17;;;;;;;8.60;4.40;;;;;;;14.03;73.55;98798.17;132961;1298;557422;-82
2023/10/07 02:09:24;;;;;;;7.30;3.90;;;;;;;13.97;73.16;98791.02;134890;1287;203182;-82
2023/10/07 02:12:32;;;;;;;5.90;4.20;;;;;;;13.88;73.54;98785.44;136205;1287;22179;-82
2023/10/07 02:15:36;;;;;;;9.70;3.90;;;;;;;13.84;73.53;98776.52;135834;1287;22600;-83
2023/10/07 02:18:44;;;;;;;;;;;;;;;13.82;73.77;98773.36;135770;1287;24797;-80
2023/10/07 02:21:48;;;;;;;6.60;4.00;;;;;;;13.77;73.87;98774.25;136092;1287;22263;-82
2023/10/07 02:25:02;;;;;;;13.00;4.40;;;;;;;13.74;73.92;98767.27;135832;1283;22547;-83
2023/10/07 02:28:05;;;;;;;11.40;4.20;;;;;;;13.72;73.80;98752.23;136281;1280;22424;-82
2023/10/07 02:31:08;;;;;;;9.40;4.50;;;;;;;13.71;73.76;98760.45;136678;1280;25285;-82
2023/10/07 02:34:28;;;;;;;5.90;4.20;;;;;;;13.69;73.73;98764.13;136291;1279;22718;-83
2023/10/07 02:37:31;;;;;;;7.70;4.00;;;;;;;13.69;73.75;98762.02;135850;1280;22684;-79
2023/10/07 02:40:36;;;;;;;7.30;3.70;;;;;;;13.69;73.46;98762.55;136271;1280;22722;-80
2023/10/07 02:43:43;;;;;;;12.10;3.90;;;;;;;13.72;73.42;98769.19;135693;1280;22572;-84
2023/10/07 02:46:52;;;;;;;7.80;4.40;;;;;;;13.74;73.45;98770.41;135961;1280;22661;-79
2023/10/07 02:49:55;;;;;;;7.50;4.30;;;;;;;13.78;73.26;98770.05;136081;1278;22550;-82
2023/10/07 02:53:10;;;;;;;8.50;4.00;;;;;;;13.82;73.06;98760.42;136320;1278;22294;-82
2023/10/07 02:56:17;;;;;;;8.70;4.20;;;;;;;13.85;72.87;98751.49;136515;1278;22558;-81
2023/10/07 02:59:27;;;;;;;8.00;4.40;;;;;;;13.86;72.89;98749.75;135864;1278;22542;-83
2023/10/07 03:02:48;;;;;;;8.20;4.50;;;;;;;13.87;72.97;98745.90;135634;1278;22529;-80
2023/10/07 03:05:58;;;;;;;9.40;4.40;;;;;;;13.86;72.86;98742.58;135886;1279;26438;-82
2023/10/07 03:09:04;;;;;;;7.90;4.00;;;;;;;13.86;72.87;98736.63;135663;1279;22654;-80
2023/10/07 03:12:07;;;;;;;11.70;4.20;;;;;;;13.86;73.12;98727.70;136543;1279;22585;-79
2023/10/07 03:15:28;;;;;;;10.00;4.60;;;;;;;13.86;73.05;98723.16;136105;1279;23154;-82
2023/10/07 03:18:31;;;;;;;7.20;4.70;;;;;;;13.85;73.11;98718.27;136013;1279;22232;-82
2023/10/07 03:21:55;;;;;;;10.50;3.70;;;;;;;13.85;73.20;98718.09;136555;1279;22627;-81
2023/10/07 03:25:00;;;;;;;9.40;4.60;;;;;;;13.88;73.03;98716.36;135965;1279;22964;-80
2023/10/07 03:28:16;;;;;;;9.80;4.30;;;;;;;13.90;72.95;98711.63;135704;1272;22555;-82
2023/10/07 03:31:28;;;;;;;5.70;4.00;;;;;;;13.91;72.64;98709.35;136036;1279;23008;-79
2023/10/07 03:34:30;;;;;;;7.90;4.40;;;;;;;13.93;72.60;98714.41;135898;1279;22624;-81
2023/10/07 03:37:42;;;;;;;6.20;3.80;;;;;;;13.96;72.58;98713.17;136397;1279;22595;-80
2023/10/07 03:40:51;;;;;;;8.30;4.40;;;;;;;13.98;72.43;98712.47;136023;1279;22558;-81
2023/10/07 03:43:59;;;;;;;7.60;4.30;;;;;;;14.01;72.24;98708.62;135919;1279;25332;-80
2023/10/07 03:47:01;;;;;;;11.10;4.40;;;;;;;14.04;72.09;98704.92;136683;1279;22585;-82
2023/10/07 03:50:20;;;;;;;8.40;3.80;;;;;;;14.07;71.86;98710.34;136014;1279;22888;-81
2023/10/07 03:53:24;;;;;;;8.80;4.10;;;;;;;14.08;71.73;98709.64;136241;1279;22238;-82
2023/10/07 03:56:26;;;;;;;10.90;4.60;;;;;;;14.07;71.71;98699.84;136599;1279;22806;-81
2023/10/07 03:59:31;;;;;;;8.40;4.20;;;;;;;14.06;71.69;98696.86;136539;1279;22220;-82
2023/10/07 04:02:41;;;;;;;5.40;3.80;;;;;;;14.07;71.61;98694.77;136540;1279;22975;-82
2023/10/07 04:05:49;;;;;;;7.90;3.90;;;;;;;14.09;71.62;98699.83;136857;1279;22729;-82
2023/10/07 04:08:53;;;;;;;5.80;3.70;;;;;;;14.10;71.65;98695.80;136679;1279;22162;-81
2023/10/07 04:11:56;;;;;;;;;;;;;;;14.10;71.67;98692.83;136505;1279;22532;-83
2023/10/07 04:15:02;;;;;;;8.30;4.20;;;;;;;14.11;71.56;98690.73;136756;1279;22517;-82
2023/10/07 04:18:09;;;;;;;6.50;4.20;;;;;;;14.13;71.47;98694.38;136638;1279;22214;-83
2023/10/07 04:21:12;;;;;;;16.70;4.50;;;;;;;14.16;71.19;98698.92;136912;1279;22814;-82
2023/10/07 04:24:15;;;;;;;6.70;4.00;;;;;;;14.19;71.17;98689.45;136766;1279;22183;-81
2023/10/07 04:27:20;;;;;;;7.00;4.40;;;;;;;14.22;70.90;98696.43;136874;1279;22260;-83
2023/10/07 04:30:26;;;;;;;8.20;4.40;;;;;;;14.26;70.44;98691.70;136889;1279;22244;-82
2023/10/07 04:33:39;;;;;;;8.20;4.20;;;;;;;14.31;70.38;98687.64;136871;1279;22569;-81
2023/10/07 04:37:08;;;;;;;7.90;4.10;;;;;;;14.36;70.06;98691.46;136885;1267;22229;-80
2023/10/07 04:43:47;;;;;;;10.70;4.80;;;;;;;14.44;69.41;98694.42;136965;1279;22379;-81
2023/10/07 04:47:04;;;;;;;59.30;6.90;;;;;;;14.48;69.18;98689.15;136954;1279;22097;-81
2023/10/07 04:50:14;;;;;;;11.10;4.30;;;;;;;14.52;68.84;98677.57;136911;1279;22208;-82
2023/10/07 04:53:17;;;;;;;6.80;4.40;;;;;;;14.54;68.74;98683.34;136946;1279;22202;-82
2023/10/07 04:56:21;;;;;;;13.60;4.60;;;;;;;14.54;68.88;98684.73;136796;1279;22232;-83
2023/10/07 04:59:24;;;;;;;7.90;4.60;;;;;;;14.57;68.94;98691.71;136956;1279;22821;-81
2023/10/07 05:02:26;;;;;;;10.50;4.20;;;;;;;14.58;68.89;98696.09;136916;1279;22630;-82
2023/10/07 05:05:30;;;;;;;6.70;4.50;;;;;;;14.60;68.94;98692.39;136993;1279;22264;-80
2023/10/07 05:08:33;;;;;;;9.50;5.20;;;;;;;14.64;69.03;98688.16;136897;1279;22280;-81
2023/10/07 05:11:37;;;;;;;9.30;4.40;;;;;;;14.69;68.60;98692.16;136960;1279;22639;-80
2023/10/07 05:14:40;;;;;;;23.00;4.80;;;;;;;14.72;68.81;98690.74;136912;1279;22391;-83
2023/10/07 05:17:44;;;;;;;13.10;4.60;;;;;;;14.73;69.05;98681.80;136831;1279;22551;-83
2023/10/07 05:20:47;;;;;;;11.50;4.40;;;;;;;14.77;69.08;98681.63;137100;1276;22301;-84
2023/10/07 05:23:50;;;;;;;8.60;4.50;;;;;;;14.80;68.64;98677.05;136958;1276;22286;-84
2023/10/07 05:26:54;;;;;;;7.10;4.20;;;;;;;14.84;68.54;98674.73;137060;1276;22165;-83
2023/10/07 05:29:59;;;;;;;11.10;4.50;;;;;;;14.87;68.77;98677.33;137208;1275;22198;-82
2023/10/07 05:33:08;;;;;;;7.50;5.00;;;;;;;14.91;68.72;98668.54;137167;1276;23058;-84
2023/10/07 05:36:13;;;;;;;11.10;5.00;;;;;;;14.93;68.64;98677.98;137090;1276;22564;-83
2023/10/07 05:39:17;;;;;;;13.70;4.80;;;;;;;14.95;68.79;98674.13;137043;1258;22281;-83
2023/10/07 05:42:20;;;;;;;6.70;5.00;;;;;;;14.97;68.84;98682.33;137095;1276;22212;-82
2023/10/07 05:45:22;;;;;;;38.30;5.60;;;;;;;15.01;68.89;98688.62;137099;1276;22535;-82
2023/10/07 05:48:25;;;;;;;9.00;4.40;;;;;;;15.02;68.95;98682.48;137239;1276;22543;-83
2023/10/07 05:51:28;;;;;;;12.30;4.60;;;;;;;15.05;69.23;98687.35;136947;1264;22549;-83
2023/10/07 05:54:31;;;;;;;8.60;4.70;;;;;;;15.10;69.02;98688.36;136906;1276;23466;-84
2023/10/07 05:57:34;;;;;;;8.10;4.80;;;;;;;15.14;68.84;98683.06;137039;1276;22534;-82
2023/10/07 06:00:38;;;;;;;10.20;4.60;;;;;;;15.19;69.14;98686.17;136726;1276;22555;-81
2023/10/07 06:03:42;;;;;;;12.10;5.00;;;;;;;15.23;69.19;98689.11;136835;1276;22256;-84
2023/10/07 06:06:45;;;;;;;8.00;4.60;;;;;;;15.30;69.21;98694.84;137244;1276;22842;-81
2023/10/07 06:09:47;;;;;;;9.50;5.00;;;;;;;15.36;69.24;98693.90;137305;1276;22328;-82
2023/10/07 06:12:50;;;;;;;17.70;5.50;;;;;;;15.44;69.27;98693.30;137005;1276;22247;-82
2023/10/07 06:15:55;;;;;;;12.60;5.30;;;;;;;15.55;69.89;98693.02;136981;1276;22787;-81
2023/10/07 06:18:58;;;;;;;11.30;4.50;;;;;;;15.92;69.80;98688.61;137013;1276;22670;-81
2023/10/07 06:22:11;;;;;;;12.80;4.20;;;;;;;16.24;68.94;98685.75;137173;1276;22269;-83
2023/10/07 06:25:15;;;;;;;14.20;5.00;;;;;;;16.54;68.07;98681.13;137062;1276;22242;-83
2023/10/07 06:28:29;;;;;;;12.50;4.60;;;;;;;16.80;67.71;98677.61;137053;1276;22216;-82
2023/10/07 06:31:32;;;;;;;10.80;4.50;;;;;;;17.08;67.08;98669.79;137202;1276;22237;-82
2023/10/07 06:34:41;;;;;;;16.50;5.40;;;;;;;17.24;66.18;98669.15;136891;1276;22256;-83
2023/10/07 06:37:43;;;;;;;11.70;4.70;;;;;;;17.26;65.75;98675.95;136925;1276;22247;-84
2023/10/07 06:40:46;;;;;;;9.20;4.50;;;;;;;17.33;65.79;98680.42;137147;1276;22084;-83
2023/10/07 06:43:50;;;;;;;11.40;4.80;;;;;;;17.42;66.03;98677.98;136846;1274;22239;-84
2023/10/07 06:46:55;;;;;;;10.60;5.00;;;;;;;17.42;65.02;98675.88;136796;1276;22550;-83
2023/10/07 06:49:58;;;;;;;9.20;4.30;;;;;;;17.35;65.31;98681.45;136902;1276;22550;-83
2023/10/07 06:53:01;;;;;;;12.40;5.00;;;;;;;17.28;65.70;98679.80;137082;1276;21957;-85
2023/10/07 06:56:04;;;;;;;23.00;4.70;;;;;;;17.28;65.96;98675.06;136718;1276;22283;-84
2023/10/07 06:59:07;;;;;;;9.40;4.60;;;;;;;17.26;65.54;98681.95;137103;1276;22559;-82
2023/10/07 07:02:16;;;;;;;15.00;4.60;;;;;;;17.20;65.92;98682.05;137138;1276;22638;-84
2023/10/07 07:05:22;;;;;;;14.10;4.60;;;;;;;17.17;65.99;98676.83;136750;1261;22286;-84
2023/10/07 07:08:26;;;;;;;9.00;4.60;;;;;;;17.22;66.14;98675.34;137231;1276;22106;-83
2023/10/07 07:11:29;;;;;;;16.40;5.30;;;;;;;17.27;66.53;98678.23;136895;1261;22297;-83
2023/10/07 07:14:33;;;;;;;10.80;4.80;;;;;;;17.35;66.42;98684.27;137066;1276;22269;-84
2023/10/07 07:17:43;;;;;;;14.50;5.20;;;;;;;17.31;66.85;98687.13;136833;1276;22638;-83
2023/10/07 07:21:00;;;;;;;11.20;4.60;;;;;;;17.36;67.08;98690.95;137155;1265;22310;-84
2023/10/07 07:24:04;;;;;;;11.70;5.00;;;;;;;17.41;66.56;98693.32;136877;1275;22551;-84
2023/10/07 07:27:08;;;;;;;16.30;5.50;;;;;;;17.39;66.81;98695.46;136779;1276;22217;-83
2023/10/07 07:30:19;;;;;;;11.60;5.50;;;;;;;17.42;66.40;98697.70;137187;1276;25208;-83
2023/10/07 07:33:28;;;;;;;10.30;5.30;;;;;;;17.51;66.98;98701.77;136672;1276;22547;-83
2023/10/07 07:36:39;;;;;;;15.00;4.40;;;;;;;17.64;66.47;98701.17;136831;1275;22543;-85
2023/10/07 07:39:42;;;;;;;14.90;5.80;;;;;;;17.83;66.10;98702.23;137268;1276;22271;-83
2023/10/07 07:42:55;;;;;;;15.50;6.00;;;;;;;18.02;65.24;98699.73;136945;1276;22226;-84
2023/10/07 07:46:08;;;;;;;11.10;5.90;;;;;;;18.32;65.71;98704.06;136940;1268;22245;-83
2023/10/07 07:49:10;;;;;;;22.70;5.40;;;;;;;18.57;65.01;98695.61;137224;1276;22566;-82
2023/10/07 07:52:15;;;;;;;14.00;5.20;;;;;;;18.93;63.58;98687.36;137069;1276;22264;-85
2023/10/07 07:55:18;;;;;;;17.20;5.20;;;;;;;19.23;62.54;98683.30;136976;1276;22873;-83
2023/10/07 07:58:23;;;;;;;9.40;4.90;;;;;;;19.19;61.99;98689.04;136882;1276;23003;-84
2023/10/07 08:01:28;;;;;;;17.90;5.30;;;;;;;18.97;62.21;98673.68;137244;1276;22762;-84
2023/10/07 08:04:43;;;;;;;18.50;4.70;;;;;;;19.04;63.41;98685.35;136863;1276;22248;-84
2023/10/07 08:07:51;;;;;;;14.10;6.20;;;;;;;19.31;61.93;98685.39;136953;1266;22523;-84
2023/10/07 08:10:54;;;;;;;9.50;5.20;;;;;;;19.21;62.49;98686.16;137216;1276;22725;-83
2023/10/07 08:14:08;;;;;;;11.10;5.10;;;;;;;19.16;62.79;98677.66;137017;1276;22671;-83
2023/10/07 08:17:11;;;;;;;13.40;6.60;;;;;;;19.04;62.45;98666.30;137061;1268;22204;-83
2023/10/07 08:20:15;;;;;;;12.60;5.30;;;;;;;18.99;63.47;98668.19;137182;1272;22237;-84
2023/10/07 08:23:23;;;;;;;13.00;4.70;;;;;;;19.35;62.77;98674.67;137017;1275;22226;-83
2023/10/07 08:26:26;;;;;;;10.70;4.90;;;;;;;19.43;62.77;98682.08;137201;1276;22205;-83
2023/10/07 08:29:34;;;;;;;17.30;4.80;;;;;;;19.77;62.04;98683.65;137193;1276;22298;-83
2023/10/07 08:32:37;;;;;;;44.70;6.70;;;;;;;19.84;61.60;98676.58;137164;1276;22243;-83
2023/10/07 08:35:43;;;;;;;14.10;4.80;;;;;;;19.92;62.13;98681.14;137265;1276;22249;-83
2023/10/07 08:38:50;;;;;;;10.10;5.20;;;;;;;20.07;61.65;98677.16;137183;1276;22708;-83
2023/10/07 08:41:58;;;;;;;18.70;4.90;;;;;;;20.04;61.55;98674.45;135794;1276;22463;-82
2023/10/07 08:45:00;;;;;;;14.10;5.00;;;;;;;19.95;61.87;98661.80;136799;1276;23076;-82
2023/10/07 08:48:14;;;;;;;9.80;5.30;;;;;;;20.08;62.45;98651.20;136859;1276;22726;-82
2023/10/07 08:51:24;;;;;;;9.30;4.70;;;;;;;20.29;61.92;98658.13;137037;1276;24286;-82
2023/10/07 08:54:37;;;;;;;17.10;5.00;;;;;;;20.71;61.15;98654.05;137066;1276;22548;-81
2023/10/07 08:57:40;;;;;;;17.70;4.60;;;;;;;20.94;59.86;98649.05;136727;1276;22968;-81
2023/10/07 09:00:45;;;;;;;12.50;5.30;;;;;;;20.91;60.14;98646.52;137104;1276;22538;-79
2023/10/07 09:03:52;;;;;;;12.80;4.00;;;;;;;20.95;59.70;98650.80;137258;1275;22441;-80
2023/10/07 09:06:56;;;;;;;41.60;5.80;;;;;;;20.84;59.40;98647.79;137240;1276;22862;-80
2023/10/07 09:09:59;;;;;;;27.30;4.70;;;;;;;20.58;59.99;98654.29;136655;1276;22281;-81
2023/10/07 09:13:04;;;;;;;9.50;4.00;;;;;;;20.45;60.82;98656.27;137042;1276;23023;-81
2023/10/07 09:16:10;;;;;;;10.20;4.40;;;;;;;20.36;61.10;98656.70;137017;1273;22695;-82
2023/10/07 09:19:13;;;;;;;22.80;5.70;;;;;;;20.28;61.28;98652.87;137218;1276;22291;-81
2023/10/07 09:22:18;;;;;;;10.30;4.50;;;;;;;20.49;61.20;98653.85;137186;1276;22168;-81
2023/10/07 09:25:29;;;;;;;11.30;4.30;;;;;;;20.72;60.72;98657.38;137182;1276;22238;-81
2023/10/07 09:28:36;;;;;;;32.20;5.00;;;;;;;20.87;60.26;98653.19;137084;1276;22233;-81
2023/10/07 09:31:39;;;;;;;53.80;6.70;;;;;;;20.91;60.04;98650.41;137251;1276;22563;-82
2023/10/07 09:34:44;;;;;;;34.70;5.30;;;;;;;21.00;59.53;98649.75;137152;1276;22583;-81
2023/10/07 09:37:47;;;;;;;24.00;5.20;;;;;;;20.94;59.36;98659.14;137218;1276;22895;-81
2023/10/07 09:41:12;;;;;;;10.90;4.20;;;;;;;21.09;59.93;98657.43;136706;1275;22225;-81
2023/10/07 09:44:25;;;;;;;6.50;4.00;;;;;;;21.29;59.38;98661.20;136812;1276;22679;-82
2023/10/07 09:47:28;;;;;;;9.90;4.60;;;;;;;21.25;59.14;98663.10;137179;1276;22175;-81
2023/10/07 09:50:33;;;;;;;25.10;5.00;;;;;;;21.01;59.33;98661.40;136885;1276;22796;-82
2023/10/07 09:53:36;;;;;;;8.50;4.50;;;;;;;20.78;60.36;98658.05;137046;1276;22999;-80
2023/10/07 09:56:43;;;;;;;20.00;5.00;;;;;;;20.65;61.02;98651.04;137001;1276;22573;-80
2023/10/07 09:59:48;;;;;;;7.40;4.20;;;;;;;20.47;61.72;98648.27;137083;1276;22427;-81
2023/10/07 10:02:51;;;;;;;7.00;4.00;;;;;;;20.31;62.39;98646.07;136750;1276;22295;-82
2023/10/07 10:05:56;;;;;;;19.10;4.30;;;;;;;20.20;62.81;98649.25;137233;1276;22650;-82
2023/10/07 10:08:59;;;;;;;13.00;4.00;;;;;;;20.15;63.48;98642.14;137236;1276;22824;-83
2023/10/07 10:18:40;;;;;;;5.80;3.80;;;;;;;19.67;65.07;98643.84;137217;1276;22104;-81
2023/10/07 10:21:43;;;;;;;9.70;4.70;;;;;;;19.52;65.81;98641.97;137226;1276;22314;-82
2023/10/07 10:24:46;;;;;;;6.00;4.20;;;;;;;19.48;66.09;98642.23;136750;1276;22479;-82
2023/10/07 10:27:49;;;;;;;8.80;5.20;;;;;;;19.45;66.46;98636.13;136864;1276;22596;-82
2023/10/07 10:30:53;;;;;;;9.30;3.80;;;;;;;19.42;66.58;98632.52;137215;1276;22303;-82
2023/10/07 10:33:58;;;;;;;10.70;4.40;;;;;;;19.45;66.65;98626.44;136714;1276;22308;-81
2023/10/07 10:37:05;;;;;;;6.50;3.60;;;;;;;19.68;66.41;98622.46;137305;1273;22576;-81
2023/10/07 10:40:10;;;;;;;10.00;3.50;;;;;;;19.87;66.20;98625.10;137273;1276;22637;-81
2023/10/07 10:43:12;;;;;;;6.60;4.70;;;;;;;19.99;65.88;98615.23;137215;1276;22591;-81
2023/10/07 10:46:14;;;;;;;11.50;4.50;;;;;;;20.08;65.65;98624.16;137257;1276;22547;-81
2023/10/07 10:49:17;;;;;;;5.90;4.40;;;;;;;20.08;65.63;98613.38;137051;1276;22495;-81
2023/10/07 10:52:19;;;;;;;12.00;4.30;;;;;;;20.13;65.78;98610.41;137364;1276;22177;-81
2023/10/07 10:55:24;;;;;;;8.20;4.00;;;;;;;20.13;65.97;98607.58;137376;1276;22211;-81
2023/10/07 10:58:27;;;;;;;11.20;4.80;;;;;;;20.02;66.20;98613.75;137087;1276;22554;-81
2023/10/07 11:01:29;;;;;;;8.30;4.40;;;;;;;19.96;66.74;98614.45;137236;1275;22500;-82
2023/10/07 11:04:34;;;;;;;5.60;3.70;;;;;;;19.90;67.15;98613.88;137282;1276;22556;-81
2023/10/07 11:07:38;;;;;;;11.40;3.70;;;;;;;19.80;67.73;98617.35;137310;1276;22259;-84
2023/10/07 11:10:42;;;;;;;5.90;3.40;;;;;;;19.77;68.46;98610.00;137246;1276;21998;-81
2023/10/07 11:13:45;;;;;;;6.90;4.30;;;;;;;19.86;68.19;98607.98;137205;1276;22271;-81
2023/10/07 11:16:47;;;;;;;7.70;4.70;;;;;;;19.82;68.39;98604.59;136916;1276;22279;-80
2023/10/07 11:19:51;;;;;;;16.90;5.90;;;;;;;19.65;68.86;98601.00;137293;1276;22105;-80
2023/10/07 11:22:54;;;;;;;;;;;;;;;19.55;69.33;98597.25;137111;1276;22501;-80
2023/10/07 11:25:56;;;;;;;9.20;4.50;;;;;;;19.43;69.81;98591.55;136851;1276;22227;-81
2023/10/07 11:29:00;;;;;;;7.10;3.80;;;;;;;19.36;70.31;98589.09;136739;1276;22576;-80
2023/10/07 11:32:03;;;;;;;5.70;3.80;;;;;;;19.27;70.49;98596.73;137038;1275;22714;-81
2023/10/07 11:35:05;;;;;;;7.80;3.70;;;;;;;19.18;71.02;98595.24;136696;1276;22547;-83
2023/10/07 11:38:11;;;;;;;7.00;3.70;;;;;;;19.10;71.50;98591.38;136692;1276;22252;-81
2023/10/07 11:41:16;;;;;;;7.40;3.90;;;;;;;19.08;71.48;98589.67;137210;1275;22574;-82
2023/10/07 11:44:19;;;;;;;4.90;3.60;;;;;;;19.06;71.89;98593.23;136801;1276;22273;-83
2023/10/07 11:47:22;;;;;;;5.40;3.70;;;;;;;19.01;72.13;98597.05;136568;1276;22557;-84
2023/10/07 11:50:27;;;;;;;8.10;4.50;;;;;;;18.94;73.54;98602.01;136904;1276;22534;-83
2023/10/07 11:53:31;;;;;;;12.90;7.50;;;;;;;18.79;74.99;98606.61;137093;1276;22316;-83
2023/10/07 11:56:33;;;;;;;7.90;5.20;;;;;;;18.64;75.45;98602.74;136920;1276;22304;-82
2023/10/07 11:59:41;;;;;;;11.70;6.50;;;;;;;18.58;76.12;98600.23;136849;1276;22904;-83
2023/10/07 12:02:43;;;;;;;20.30;11.70;;;;;;;18.48;77.77;98602.75;137147;1276;23139;-83
2023/10/07 12:05:46;;;;;;;13.00;7.90;;;;;;;18.30;79.08;98603.34;136643;1275;22331;-82
2023/10/07 12:08:49;;;;;;;22.90;6.70;;;;;;;18.14;79.77;98604.40;136707;1275;22918;-82
2023/10/07 12:11:53;;;;;;;7.10;5.30;;;;;;;18.57;80.15;98603.98;137118;1276;22518;-82
2023/10/07 12:14:56;;;;;;;7.40;4.70;;;;;;;18.48;79.59;98604.52;136926;1276;22217;-82
2023/10/07 12:17:59;;;;;;;7.70;4.20;;;;;;;18.20;79.97;98602.33;136557;1276;22232;-84
2023/10/07 12:21:09;;;;;;;9.40;4.80;;;;;;;18.35;82.21;98599.70;137035;1276;22681;-84
2023/10/07 12:24:11;;;;;;;8.80;4.70;;;;;;;19.59;78.44;98598.52;137052;1266;22207;-83
2023/10/07 12:27:14;;;;;;;12.30;4.80;;;;;;;19.30;77.41;98597.37;136883;1276;22702;-82
2023/10/07 12:30:21;;;;;;;7.60;5.90;;;;;;;18.88;79.00;98597.92;136743;1276;22553;-82
2023/10/07 12:33:23;;;;;;;8.20;5.10;;;;;;;18.55;80.58;98599.43;137243;1276;22233;-82
2023/10/07 12:36:26;;;;;;;8.70;5.60;;;;;;;18.26;82.23;98606.08;136921;1276;22245;-82
2023/10/07 12:39:31;;;;;;;7.50;4.80;;;;;;;18.02;83.36;98610.29;136811;1276;22149;-85
2023/10/07 12:42:33;;;;;;;9.50;4.70;;;;;;;18.77;85.76;98616.48;137186;1276;22564;-85
2023/10/07 12:45:38;;;;;;;6.40;5.10;;;;;;;20.37;81.12;98617.77;136776;1276;22254;-82
2023/10/07 12:48:40;;;;;;;9.50;5.30;;;;;;;21.15;77.11;98613.00;136665;1276;22261;-84
2023/10/07 12:51:43;;;;;;;14.90;6.70;;;;;;;21.65;75.48;98605.58;136960;1276;25009;-86
2023/10/07 12:54:46;;;;;;;10.80;6.30;;;;;;;21.54;73.26;98604.73;136967;1276;22550;-85
2023/10/07 12:57:49;;;;;;;12.40;6.80;;;;;;;20.96;74.35;98603.01;136621;1276;22221;-84
2023/10/07 13:00:52;;;;;;;7.40;6.10;;;;;;;20.54;74.59;98600.84;136672;1276;22505;-85
2023/10/07 13:03:54;;;;;;;8.70;7.00;;;;;;;19.80;75.52;98601.46;137144;1276;22436;-84
2023/10/07 13:07:00;;;;;;;8.70;4.40;;;;;;;19.06;78.38;98607.86;136921;1276;22233;-85
2023/10/07 13:10:03;;;;;;;8.00;4.60;;;;;;;18.46;80.67;98607.74;136980;1276;22261;-86
2023/10/07 13:13:06;;;;;;;8.70;6.00;;;;;;;18.00;83.40;98598.36;137160;1276;22158;-85
2023/10/07 13:16:10;;;;;;;7.40;4.50;;;;;;;17.67;84.78;98596.42;136838;1276;22645;-84
2023/10/07 13:19:13;;;;;;;10.30;4.80;;;;;;;17.40;86.55;98590.42;136856;1276;22548;-83
2023/10/07 13:22:18;;;;;;;8.20;5.00;;;;;;;17.23;87.61;98584.58;136959;1276;22529;-85
2023/10/07 13:25:21;;;;;;;7.40;4.50;;;;;;;17.06;89.53;98587.17;137083;1276;22196;-84
2023/10/07 13:28:26;;;;;;;9.30;4.80;;;;;;;16.93;89.30;98585.83;136839;1276;22185;-84
2023/10/07 13:31:29;;;;;;;13.10;5.90;;;;;;;16.87;90.20;98584.35;136836;1276;24757;-85
2023/10/07 13:34:31;;;;;;;10.50;5.50;;;;;;;16.81;90.66;98585.87;137131;1276;22243;-82
2023/10/07 13:37:34;;;;;;;14.20;5.80;;;;;;;16.77;91.37;98585.23;136831;1276;22185;-83
2023/10/07 13:40:37;;;;;;;9.90;7.30;;;;;;;16.75;91.75;98581.58;136770;1276;22189;-84
2023/10/07 13:43:40;;;;;;;12.00;6.80;;;;;;;16.75;91.30;98579.48;137126;1276;22222;-84
2023/10/07 13:46:43;;;;;;;14.60;8.30;;;;;;;16.78;91.46;98581.36;136721;1276;22189;-84
2023/10/07 13:49:49;;;;;;;12.00;8.30;;;;;;;16.81;91.70;98575.16;136649;1276;22213;-84
2023/10/07 13:52:58;;;;;;;14.00;8.90;;;;;;;16.83;91.97;98569.66;137114;1276;22555;-83
2023/10/07 13:56:10;;;;;;;12.30;7.60;;;;;;;16.86;91.58;98569.27;136934;1276;22578;-83
2023/10/07 13:59:13;;;;;;;14.40;7.60;;;;;;;16.86;91.80;98564.86;136931;1276;22184;-84
2023/10/07 14:02:19;;;;;;;9.10;6.10;;;;;;;16.86;91.31;98565.93;136833;1276;24200;-83
2023/10/07 14:05:24;;;;;;;13.00;6.10;;;;;;;16.84;91.34;98562.27;137308;1276;22175;-83
2023/10/07 14:08:29;;;;;;;8.60;5.90;;;;;;;16.85;91.15;98566.64;136563;1276;300994;-84
2023/10/07 14:11:31;;;;;;;10.40;5.70;;;;;;;16.87;91.53;98565.37;136794;1276;22232;-84
2023/10/07 14:14:34;;;;;;;7.30;5.00;;;;;;;16.90;90.82;98565.15;137106;1276;22242;-83
2023/10/07 14:17:36;;;;;;;6.20;4.70;;;;;;;16.94;90.83;98565.27;136808;1276;22287;-84
2023/10/07 14:20:39;;;;;;;8.00;4.70;;;;;;;16.97;90.92;98569.76;136768;1276;22168;-85
2023/10/07 14:23:42;;;;;;;10.40;5.40;;;;;;;17.57;97.74;98563.33;136910;1276;22563;-83
2023/10/07 14:26:48;;;;;;;9.70;5.30;;;;;;;19.48;90.57;98558.77;136955;1276;22221;-83
2023/10/07 14:29:52;;;;;;;9.00;6.00;;;;;;;19.84;81.40;98559.48;136823;1276;22200;-84
2023/10/07 14:32:58;;;;;;;9.90;5.30;;;;;;;19.08;81.18;98553.50;136722;1276;22527;-81
2023/10/07 14:36:00;;;;;;;8.60;4.40;;;;;;;18.53;82.47;98558.25;137219;1276;22173;-84
2023/10/07 14:39:03;;;;;;;11.20;5.40;;;;;;;18.16;83.78;98553.98;136775;1272;22296;-83
2023/10/07 14:42:07;;;;;;;6.80;5.30;;;;;;;17.92;84.65;98548.19;136807;1276;22253;-83
2023/10/07 14:45:10;;;;;;;7.10;4.30;;;;;;;17.72;86.27;98551.61;137235;1276;22227;-83
2023/10/07 14:48:12;;;;;;;6.30;4.80;;;;;;;17.55;86.72;98552.84;136804;1276;22041;-83
2023/10/07 14:51:17;;;;;;;10.70;5.70;;;;;;;17.44;87.15;98550.78;136787;1276;22426;-84
2023/10/07 14:54:19;;;;;;;9.20;4.70;;;;;;;17.36;87.99;98549.52;136946;1276;22540;-83
2023/10/07 14:57:22;;;;;;;7.30;5.30;;;;;;;17.29;88.82;98547.54;136999;1276;22657;-84
2023/10/07 15:00:24;;;;;;;9.40;4.90;;;;;;;17.22;89.76;98545.02;136791;1276;22174;-83
2023/10/07 15:03:27;;;;;;;6.20;4.50;;;;;;;17.13;91.83;98544.85;136821;1276;22572;-84
2023/10/07 15:06:34;;;;;;;8.00;4.90;;;;;;;17.65;97.22;98532.90;137012;1276;22221;-85
2023/10/07 15:09:37;;;;;;;19.60;6.30;;;;;;;18.49;90.71;98526.96;136798;1276;22203;-84